Time;durP1;ratioP1;P1;durP2;ratioP2;P2;SDS_P1;SDS_P2;PMS_P1;PMS_P2;Temp;Humidity;BMP_temperature;BMP_pressure;BME280_temperature;BME280_humidity;BME280_pressure;Samples;Min_cycle;Max_cycle;Signal;HPM_P1;HPM_P2
2021/07/07 00:02:17;;;;;;;6.20;5.60;;;19.80;99.90;;;;;;6072829;29;20206;-69
2021/07/07 00:05:21;;;;;;;6.20;5.60;;;19.80;99.90;;;;;;6075092;29;20221;-69
2021/07/07 00:08:23;;;;;;;6.30;5.70;;;19.80;99.90;;;;;;6061476;29;20197;-69
2021/07/07 00:11:25;;;;;;;6.40;5.80;;;19.70;99.90;;;;;;6061615;29;20527;-69
2021/07/07 00:14:27;;;;;;;6.57;5.93;;;19.60;99.90;;;;;;6061445;29;20193;-69
2021/07/07 00:17:30;;;;;;;6.70;6.00;;;19.60;99.90;;;;;;6061587;29;20193;-69
2021/07/07 00:21:16;;;;;;;6.57;5.47;;;19.60;99.90;;;;;;6076198;29;20209;-69
2021/07/07 00:23:58;;;;;;;5.90;5.37;;;19.60;99.90;;;;;;6052421;29;20224;-70
2021/07/07 00:27:01;;;;;;;6.10;5.50;;;19.60;99.90;;;;;;6060417;29;20358;-70
2021/07/07 00:30:06;;;;;;;5.93;5.43;;;19.60;99.90;;;;;;6059725;29;20205;-70
2021/07/07 00:33:09;;;;;;;5.43;4.93;;;19.50;99.90;;;;;;6067996;29;20683;-69
2021/07/07 00:36:11;;;;;;;6.20;5.70;;;19.50;99.90;;;;;;6061322;29;20202;-69
2021/07/07 00:39:13;;;;;;;6.50;5.90;;;19.50;99.90;;;;;;6059901;29;20273;-69
2021/07/07 00:42:16;;;;;;;6.27;5.73;;;19.50;99.90;;;;;;6061047;29;20201;-70
2021/07/07 00:45:18;;;;;;;6.50;5.90;;;19.50;99.90;;;;;;6075471;29;20221;-70
2021/07/07 00:48:20;;;;;;;6.07;5.47;;;19.50;99.90;;;;;;6061325;29;20205;-69
2021/07/07 00:51:23;;;;;;;6.67;6.00;;;19.50;99.90;;;;;;6058803;29;20277;-69
2021/07/07 00:54:26;;;;;;;6.97;5.77;;;19.40;99.90;;;;;;6055930;29;20205;-70
2021/07/07 00:57:34;;;;;;;6.77;6.17;;;19.30;99.90;;;;;;6057429;29;20193;-69
2021/07/07 01:00:37;;;;;;;5.87;5.37;;;19.30;99.90;;;;;;6056145;29;20289;-69
2021/07/07 01:03:39;;;;;;;6.40;5.67;;;19.30;99.90;;;;;;6071798;29;20653;-69
2021/07/07 01:06:41;;;;;;;6.63;5.97;;;19.30;99.90;;;;;;6056993;29;20205;-69
2021/07/07 01:09:43;;;;;;;6.47;5.93;;;19.30;99.90;;;;;;6057329;29;20253;-70
2021/07/07 01:12:47;;;;;;;6.70;5.70;;;19.30;99.90;;;;;;6057238;29;20204;-70
2021/07/07 01:15:51;;;;;;;6.83;6.13;;;19.30;99.90;;;;;;6056742;29;20216;-69
2021/07/07 01:18:54;;;;;;;6.90;6.30;;;19.20;99.90;;;;;;6055716;29;20626;-69
2021/07/07 01:21:56;;;;;;;6.53;6.00;;;19.20;99.90;;;;;;6056616;29;20700;-69
2021/07/07 01:24:59;;;;;;;6.93;6.20;;;19.30;99.90;;;;;;6055670;29;20221;-70
2021/07/07 01:28:04;;;;;;;6.00;5.10;;;19.30;99.90;;;;;;6071095;29;20684;-70
2021/07/07 01:31:06;;;;;;;3.83;3.40;;;19.30;99.90;;;;;;6057797;29;20201;-70
2021/07/07 01:34:09;;;;;;;7.70;6.70;;;19.70;99.90;;;;;;6077155;29;20614;-70
2021/07/07 01:37:11;;;;;;;14.57;12.87;;;20.00;99.90;;;;;;6056439;29;20203;-69
2021/07/07 01:40:17;;;;;;;11.17;8.53;;;20.30;99.90;;;;;;6051459;29;20202;-70
2021/07/07 01:43:20;;;;;;;8.03;6.87;;;20.40;99.90;;;;;;6068451;29;20320;-71
2021/07/07 01:46:22;;;;;;;12.60;10.50;;;20.50;99.90;;;;;;6040138;29;20222;-69
2021/07/07 01:49:25;;;;;;;9.27;8.37;;;20.40;99.90;;;;;;6056378;29;20193;-70
2021/07/07 01:52:27;;;;;;;9.30;8.30;;;20.40;99.90;;;;;;6055932;29;20197;-70
2021/07/07 01:55:29;;;;;;;7.33;6.63;;;20.30;99.90;;;;;;6056156;29;20543;-69
2021/07/07 01:58:32;;;;;;;7.70;6.60;;;20.30;99.90;;;;;;6054541;29;20610;-69
2021/07/07 02:01:34;;;;;;;5.37;4.87;;;20.30;99.90;;;;;;6055948;29;20721;-69
2021/07/07 02:04:36;;;;;;;11.63;8.63;;;20.30;99.90;;;;;;6053843;29;20217;-69
2021/07/07 02:07:40;;;;;;;6.47;5.73;;;20.30;99.90;;;;;;6054394;29;20206;-70
2021/07/07 02:10:42;;;;;;;6.60;5.80;;;20.20;99.90;;;;;;6054055;29;20664;-68
2021/07/07 02:13:44;;;;;;;8.67;6.90;;;20.20;99.90;;;;;;6058771;29;20725;-69
2021/07/07 02:16:47;;;;;;;11.77;9.70;;;20.10;99.90;;;;;;6055783;29;20216;-70
2021/07/07 02:19:49;;;;;;;12.93;10.80;;;20.10;99.90;;;;;;6055167;29;20321;-69
2021/07/07 02:22:51;;;;;;;10.57;8.07;;;20.00;99.90;;;;;;6054320;29;20193;-70
2021/07/07 02:25:54;;;;;;;12.03;7.60;;;20.00;99.90;;;;;;6053834;29;20299;-70
2021/07/07 02:28:56;;;;;;;8.13;6.53;;;20.00;99.90;;;;;;6054581;29;20200;-70
2021/07/07 02:31:58;;;;;;;10.43;7.20;;;20.00;99.90;;;;;;6054477;29;20205;-70
2021/07/07 02:35:02;;;;;;;6.47;5.00;;;20.00;99.90;;;;;;6054900;29;20230;-69
2021/07/07 02:38:08;;;;;;;6.63;4.43;;;19.90;99.90;;;;;;6054053;29;20681;-70
2021/07/07 02:41:10;;;;;;;4.23;3.80;;;19.90;99.90;;;;;;6054862;29;20678;-69
2021/07/07 02:44:12;;;;;;;4.40;2.73;;;19.90;99.90;;;;;;6069039;29;20602;-70
2021/07/07 02:47:15;;;;;;;3.00;2.63;;;19.90;99.90;;;;;;6055206;29;20303;-69
2021/07/07 02:50:19;;;;;;;5.40;2.67;;;19.90;99.90;;;;;;6054708;29;20193;-69
2021/07/07 02:53:22;;;;;;;3.60;3.17;;;19.90;99.90;;;;;;6054872;29;20190;-70
2021/07/07 02:56:24;;;;;;;4.23;3.20;;;19.90;99.90;;;;;;6069079;29;20304;-69
2021/07/07 02:59:26;;;;;;;6.23;4.50;;;19.80;99.90;;;;;;6054896;29;20285;-70
2021/07/07 03:02:29;;;;;;;5.83;4.10;;;19.80;99.90;;;;;;6066261;29;20286;-69
2021/07/07 03:05:33;;;;;;;3.60;2.53;;;19.80;99.90;;;;;;6060723;29;20669;-69
2021/07/07 03:08:37;;;;;;;4.17;2.90;;;19.80;99.90;;;;;;6054730;29;20197;-69
2021/07/07 03:11:39;;;;;;;3.83;2.60;;;19.80;99.90;;;;;;6054215;29;20193;-69
2021/07/07 03:14:41;;;;;;;2.40;2.20;;;19.80;99.90;;;;;;6053452;29;20200;-69
2021/07/07 03:17:43;;;;;;;2.87;2.10;;;19.80;99.90;;;;;;6053044;29;20197;-69
2021/07/07 03:20:49;;;;;;;2.67;2.30;;;19.70;99.90;;;;;;6053247;29;20284;-70
2021/07/07 03:23:51;;;;;;;2.80;2.10;;;19.70;99.90;;;;;;6054349;29;20281;-69
2021/07/07 03:26:53;;;;;;;3.33;2.17;;;19.60;99.90;;;;;;6052846;29;20280;-69
2021/07/07 03:29:55;;;;;;;2.70;2.20;;;19.60;99.90;;;;;;6053578;29;20264;-69
2021/07/07 03:32:58;;;;;;;5.53;1.90;;;19.60;99.90;;;;;;6055008;29;20208;-69
2021/07/07 03:36:00;;;;;;;1.63;1.53;;;19.60;99.90;;;;;;6052490;29;20555;-69
2021/07/07 03:39:03;;;;;;;2.00;1.50;;;19.60;99.90;;;;;;6053877;29;20252;-70
2021/07/07 03:42:05;;;;;;;3.30;1.40;;;19.60;99.90;;;;;;6053566;29;20287;-69
2021/07/07 03:45:10;;;;;;;1.97;1.37;;;19.70;99.90;;;;;;6067978;29;20241;-69
2021/07/07 03:48:12;;;;;;;2.00;1.50;;;19.80;99.90;;;;;;6053437;29;20562;-70
2021/07/07 03:51:15;;;;;;;1.43;1.00;;;19.80;99.90;;;;;;6053831;29;20193;-70
2021/07/07 03:54:18;;;;;;;0.87;0.83;;;19.90;99.90;;;;;;6053224;29;20284;-70
2021/07/07 03:57:20;;;;;;;1.70;1.30;;;20.00;99.90;;;;;;6052707;29;20285;-70
2021/07/07 04:00:25;;;;;;;0.93;0.80;;;20.10;99.90;;;;;;6052420;29;20241;-70
2021/07/07 04:03:28;;;;;;;1.37;1.27;;;20.20;99.90;;;;;;6062409;29;20231;-70
2021/07/07 04:06:30;;;;;;;1.50;1.33;;;20.30;99.90;;;;;;6053472;29;20216;-70
2021/07/07 04:09:32;;;;;;;3.00;2.20;;;20.30;99.90;;;;;;6051991;29;20193;-69
2021/07/07 04:12:36;;;;;;;3.47;2.33;;;20.30;99.90;;;;;;6052487;29;20337;-69
2021/07/07 04:15:39;;;;;;;2.90;1.80;;;20.30;99.90;;;;;;6052261;29;20209;-70
2021/07/07 04:18:41;;;;;;;3.17;1.97;;;20.20;99.90;;;;;;6053070;29;20255;-70
2021/07/07 04:21:43;;;;;;;1.97;1.77;;;20.20;99.90;;;;;;6052090;29;20197;-71
2021/07/07 04:24:45;;;;;;;2.50;1.90;;;20.20;99.90;;;;;;6052857;29;20292;-69
2021/07/07 04:27:48;;;;;;;1.70;1.20;;;20.20;99.90;;;;;;6056594;29;20233;-69
2021/07/07 04:30:51;;;;;;;1.23;1.13;;;20.10;99.90;;;;;;6058155;29;20677;-69
2021/07/07 04:33:53;;;;;;;1.20;1.10;;;20.10;99.90;;;;;;6073146;29;20198;-69
2021/07/07 04:36:56;;;;;;;1.00;1.00;;;20.10;99.90;;;;;;6057407;29;20684;-69
2021/07/07 04:39:58;;;;;;;1.17;1.00;;;20.00;99.90;;;;;;6056246;29;20201;-70
2021/07/07 04:43:01;;;;;;;0.90;0.80;;;20.10;99.90;;;;;;6056078;29;20316;-69
2021/07/07 04:46:03;;;;;;;2.83;0.90;;;20.30;99.90;;;;;;6055795;29;20278;-69
2021/07/07 04:49:05;;;;;;;0.73;0.73;;;20.40;99.90;;;;;;6057196;29;20197;-71
2021/07/07 04:52:07;;;;;;;0.93;0.80;;;20.50;99.90;;;;;;6055916;29;20678;-70
2021/07/07 04:55:12;;;;;;;0.97;0.70;;;20.50;99.90;;;;;;6056926;29;20726;-69
2021/07/07 04:58:15;;;;;;;1.00;0.90;;;20.60;99.90;;;;;;6056016;29;20666;-70
2021/07/07 05:01:18;;;;;;;1.13;0.80;;;20.70;99.90;;;;;;6060505;29;20212;-70
2021/07/07 05:04:20;;;;;;;2.17;0.80;;;20.60;99.90;;;;;;6079213;29;20189;-69
2021/07/07 05:07:22;;;;;;;0.83;0.83;;;20.60;99.90;;;;;;6056953;29;20618;-67
2021/07/07 05:10:24;;;;;;;0.80;0.73;;;20.60;99.90;;;;;;6056531;29;20205;-69
2021/07/07 05:13:27;;;;;;;1.00;0.70;;;20.60;99.90;;;;;;6056762;29;20197;-69
2021/07/07 05:16:29;;;;;;;1.23;1.00;;;20.60;99.90;;;;;;6056149;29;20218;-70
2021/07/07 05:19:32;;;;;;;0.63;0.63;;;20.60;99.90;;;;;;6056694;29;20781;-70
2021/07/07 05:22:34;;;;;;;0.77;0.60;;;20.60;99.90;;;;;;6055424;29;20285;-69
2021/07/07 05:25:39;;;;;;;2.40;0.80;;;20.70;99.90;;;;;;6056031;29;20212;-71
2021/07/07 05:28:41;;;;;;;0.73;0.60;;;20.80;99.90;;;;;;6039805;29;20719;-69
2021/07/07 05:31:43;;;;;;;0.70;0.70;;;20.90;99.90;;;;;;6063591;29;20199;-70
2021/07/07 05:34:46;;;;;;;0.90;0.60;;;21.00;99.90;;;;;;6057444;29;20189;-70
2021/07/07 05:37:48;;;;;;;1.50;0.80;;;21.10;99.90;;;;;;6054623;29;20303;-70
2021/07/07 05:40:51;;;;;;;0.40;0.40;;;21.20;99.90;;;;;;6054868;29;20208;-70
2021/07/07 05:43:54;;;;;;;1.00;0.90;;;21.20;99.90;;;;;;6054329;29;20245;-70
2021/07/07 05:46:56;;;;;;;2.10;0.70;;;21.30;99.90;;;;;;6055471;29;20246;-70
2021/07/07 05:49:59;;;;;;;2.73;0.70;;;21.30;99.90;;;;;;6056060;29;20197;-70
2021/07/07 05:53:01;;;;;;;0.97;0.70;;;21.30;99.90;;;;;;6055488;29;20192;-70
2021/07/07 05:56:04;;;;;;;0.70;0.60;;;21.40;99.90;;;;;;6055968;29;20564;-71
2021/07/07 05:59:06;;;;;;;0.80;0.80;;;21.50;99.90;;;;;;6054726;29;20197;-70
2021/07/07 06:02:09;;;;;;;0.80;0.70;;;21.50;99.90;;;;;;6065737;29;20232;-70
2021/07/07 06:05:12;;;;;;;0.40;0.40;;;21.60;99.90;;;;;;6060290;29;20288;-70
2021/07/07 06:08:14;;;;;;;0.50;0.50;;;21.60;99.90;;;;;;6069439;29;20729;-69
2021/07/07 06:11:16;;;;;;;0.40;0.40;;;21.60;99.90;;;;;;6055528;29;20201;-70
2021/07/07 06:14:18;;;;;;;0.87;0.70;;;21.70;99.90;;;;;;6055329;29;20201;-70
2021/07/07 06:17:21;;;;;;;0.50;0.50;;;21.70;99.90;;;;;;6055341;29;20204;-70
2021/07/07 06:20:24;;;;;;;1.40;0.60;;;21.80;99.90;;;;;;6055436;29;20197;-69
2021/07/07 06:23:26;;;;;;;0.57;0.57;;;21.90;99.90;;;;;;6054897;29;20201;-70
2021/07/07 06:26:30;;;;;;;0.53;0.33;;;22.00;99.90;;;;;;6053997;29;20225;-69
2021/07/07 06:29:33;;;;;;;1.20;0.60;;;22.10;99.90;;;;;;6055106;29;20200;-69
2021/07/07 06:32:35;;;;;;;1.63;0.40;;;22.20;99.90;;;;;;6068691;29;20217;-70
2021/07/07 06:35:37;;;;;;;0.50;0.50;;;22.30;99.90;;;;;;6065572;29;20897;-70
2021/07/07 06:38:39;;;;;;;0.30;0.30;;;22.30;99.90;;;;;;6030312;29;20666;-70
2021/07/07 06:41:41;;;;;;;0.40;0.40;;;22.40;99.90;;;;;;6038534;29;20200;-70
2021/07/07 06:44:44;;;;;;;1.63;0.60;;;22.50;99.90;;;;;;6054211;29;20229;-70
2021/07/07 06:47:46;;;;;;;0.40;0.40;;;22.70;99.90;;;;;;6053470;29;20295;-70
2021/07/07 06:50:49;;;;;;;1.53;0.47;;;22.90;99.90;;;;;;6054271;29;20193;-72
2021/07/07 06:53:51;;;;;;;1.60;0.80;;;23.00;99.90;;;;;;6052796;29;20648;-69
2021/07/07 06:56:53;;;;;;;1.00;0.60;;;23.20;99.90;;;;;;6053397;29;20228;-69
2021/07/07 06:59:56;;;;;;;0.97;0.60;;;23.40;99.90;;;;;;6052813;29;20231;-70
2021/07/07 07:02:58;;;;;;;3.33;0.70;;;23.60;99.90;;;;;;6060878;29;20201;-70
2021/07/07 07:06:00;;;;;;;1.07;0.63;;;23.70;99.90;;;;;;6054436;29;20206;-71
2021/07/07 07:09:04;;;;;;;0.40;0.40;;;23.90;99.50;;;;;;6052830;29;20193;-70
2021/07/07 07:12:06;;;;;;;0.60;0.40;;;23.90;98.90;;;;;;6054293;29;20340;-70
2021/07/07 07:15:11;;;;;;;0.73;0.50;;;24.10;98.80;;;;;;6053827;29;20203;-70
2021/07/07 07:18:14;;;;;;;0.40;0.40;;;24.30;98.00;;;;;;6053040;29;20208;-70
2021/07/07 07:21:17;;;;;;;0.40;0.40;;;24.40;97.70;;;;;;6052983;29;20265;-70
2021/07/07 07:24:19;;;;;;;0.40;0.40;;;24.50;97.20;;;;;;6053645;29;20205;-70
2021/07/07 07:27:21;;;;;;;1.00;0.60;;;24.70;96.90;;;;;;6054213;29;20221;-70
2021/07/07 07:30:24;;;;;;;0.67;0.50;;;24.90;96.30;;;;;;6052261;29;20209;-71
2021/07/07 07:33:26;;;;;;;2.60;0.60;;;25.00;95.50;;;;;;6068220;29;20190;-70
2021/07/07 07:36:28;;;;;;;0.63;0.50;;;25.10;95.50;;;;;;6053477;29;20277;-70
2021/07/07 07:39:47;;;;;;;0.50;0.50;;;25.30;95.00;;;;;;6052718;29;20562;-70
2021/07/07 07:42:49;;;;;;;0.23;0.23;;;25.60;94.70;;;;;;6052786;29;20622;-70
2021/07/07 07:45:59;;;;;;;0.50;0.50;;;25.80;94.10;;;;;;6052182;29;20567;-70
2021/07/07 07:49:02;;;;;;;0.30;0.30;;;26.00;93.10;;;;;;6053951;29;20197;-70
2021/07/07 07:52:06;;;;;;;0.40;0.30;;;26.10;92.80;;;;;;6052245;29;20833;-70
2021/07/07 07:55:09;;;;;;;1.38;0.40;;;26.10;92.80;;;;;;6053980;29;20202;-70
2021/07/07 07:58:17;;;;;;;1.40;0.50;;;26.20;92.50;;;;;;6054096;29;20185;-70
2021/07/07 08:01:19;;;;;;;0.40;0.40;;;26.40;92.20;;;;;;6060399;29;20275;-71
2021/07/07 08:04:22;;;;;;;1.55;0.40;;;26.60;91.30;;;;;;6090889;29;20653;-70
2021/07/07 08:07:27;;;;;;;1.30;0.60;;;26.80;90.60;;;;;;6057885;29;20216;-70
2021/07/07 08:10:30;;;;;;;0.60;0.60;;;26.80;90.50;;;;;;6057202;29;20686;-70
2021/07/07 08:13:32;;;;;;;0.43;0.43;;;26.90;90.10;;;;;;6057444;29;20202;-71
2021/07/07 08:16:35;;;;;;;1.02;0.50;;;27.00;90.10;;;;;;6057000;29;20205;-71
2021/07/07 08:19:37;;;;;;;0.40;0.40;;;27.10;89.40;;;;;;6058078;29;20197;-71
2021/07/07 08:22:40;;;;;;;0.65;0.50;;;27.40;88.10;;;;;;6057821;29;20206;-72
2021/07/07 08:25:42;;;;;;;1.00;0.50;;;27.60;87.30;;;;;;6057931;29;20201;-71
2021/07/07 08:28:44;;;;;;;0.52;0.50;;;27.80;86.50;;;;;;6056047;29;20212;-71
2021/07/07 08:31:46;;;;;;;0.60;0.60;;;28.00;86.00;;;;;;6062757;29;20566;-70
2021/07/07 08:34:49;;;;;;;0.50;0.50;;;28.00;83.90;;;;;;6056672;29;20198;-71
2021/07/07 08:37:51;;;;;;;0.60;0.60;;;28.20;83.60;;;;;;6056051;29;20217;-71
2021/07/07 08:40:53;;;;;;;0.93;0.60;;;28.20;82.70;;;;;;6057632;29;20285;-71
2021/07/07 08:43:56;;;;;;;0.60;0.60;;;28.40;81.10;;;;;;6056692;29;20619;-71
2021/07/07 08:46:58;;;;;;;0.68;0.63;;;28.50;80.10;;;;;;6057689;29;20231;-71
2021/07/07 08:50:00;;;;;;;1.25;0.80;;;28.60;79.90;;;;;;6056122;29;20198;-71
2021/07/07 08:53:05;;;;;;;1.42;0.70;;;28.60;79.10;;;;;;6057366;29;20224;-70
2021/07/07 08:56:08;;;;;;;0.52;0.52;;;28.80;79.50;;;;;;6057483;29;20217;-70
2021/07/07 08:59:12;;;;;;;1.55;0.70;;;29.00;78.00;;;;;;6056961;29;20201;-71
2021/07/07 09:02:14;;;;;;;0.82;0.60;;;29.00;76.00;;;;;;6082749;29;20284;-70
2021/07/07 09:05:16;;;;;;;0.60;0.57;;;28.90;77.70;;;;;;6057627;29;20216;-71
2021/07/07 09:08:41;;;;;;;3.80;1.08;;;29.20;76.80;;;;;;6055859;29;20252;-70
2021/07/07 09:11:43;;;;;;;1.10;1.00;;;29.50;74.90;;;;;;6055079;29;20563;-71
2021/07/07 09:14:47;;;;;;;0.88;0.88;;;29.60;73.20;;;;;;6056416;29;20326;-71
2021/07/07 09:17:51;;;;;;;1.05;0.88;;;29.70;73.50;;;;;;6055670;29;20212;-70
2021/07/07 09:20:53;;;;;;;1.48;1.30;;;30.00;71.80;;;;;;6056816;29;20194;-70
2021/07/07 09:23:58;;;;;;;1.58;1.48;;;30.10;70.80;;;;;;6055379;29;20689;-71
2021/07/07 09:27:10;;;;;;;1.30;1.13;;;30.20;70.10;;;;;;6055432;29;20205;-71
2021/07/07 09:30:14;;;;;;;1.48;1.38;;;30.50;69.50;;;;;;6056268;29;20572;-71
2021/07/07 09:33:17;;;;;;;1.50;1.40;;;30.70;68.40;;;;;;6074724;29;20591;-70
2021/07/07 09:36:24;;;;;;;1.45;1.38;;;30.80;67.00;;;;;;6055187;29;20869;-71
2021/07/07 09:39:30;;;;;;;2.63;1.50;;;30.80;66.20;;;;;;6056698;29;20198;-71
2021/07/07 09:42:35;;;;;;;1.38;1.25;;;30.90;64.70;;;;;;6055683;29;20365;-70
2021/07/07 09:45:47;;;;;;;1.40;1.40;;;30.90;64.60;;;;;;6056468;29;20202;-71
2021/07/07 09:48:50;;;;;;;1.27;1.17;;;30.80;62.10;;;;;;6056170;29;20576;-71
2021/07/07 09:51:53;;;;;;;2.33;1.45;;;30.80;63.60;;;;;;6054530;29;20194;-71
2021/07/07 09:54:56;;;;;;;1.98;1.48;;;31.10;63.40;;;;;;6055975;29;20205;-71
2021/07/07 09:58:00;;;;;;;1.50;1.40;;;31.30;63.30;;;;;;6054916;29;20590;-71
2021/07/07 10:01:02;;;;;;;2.40;1.30;;;31.70;62.20;;;;;;6056680;29;20668;-71
2021/07/07 10:04:05;;;;;;;2.17;1.40;;;31.90;61.50;;;;;;6031687;29;20202;-71
2021/07/07 10:07:10;;;;;;;2.08;1.40;;;31.60;61.90;;;;;;6059207;29;20586;-71
2021/07/07 10:10:15;;;;;;;2.40;1.58;;;31.90;61.60;;;;;;6055739;29;20204;-71
2021/07/07 10:13:17;;;;;;;1.52;1.20;;;32.30;60.10;;;;;;6054381;29;20567;-71
2021/07/07 10:16:19;;;;;;;1.50;1.40;;;32.00;59.40;;;;;;6054075;29;20205;-71
2021/07/07 10:19:22;;;;;;;1.50;1.40;;;31.50;59.90;;;;;;6055154;29;20193;-70
2021/07/07 10:22:24;;;;;;;1.65;1.50;;;31.10;61.30;;;;;;6054228;29;20555;-70
2021/07/07 10:25:30;;;;;;;2.08;1.67;;;30.60;61.90;;;;;;6053195;29;20226;-70
2021/07/07 10:28:33;;;;;;;1.73;1.50;;;30.30;63.40;;;;;;6054948;29;20209;-70
2021/07/07 10:31:49;;;;;;;1.65;1.55;;;29.90;63.80;;;;;;6061337;29;20564;-71
2021/07/07 10:34:52;;;;;;;1.70;1.60;;;29.80;66.60;;;;;;6055279;29;20214;-71
2021/07/07 10:37:56;;;;;;;2.08;1.40;;;30.10;64.90;;;;;;6069137;29;20209;-70
2021/07/07 10:40:58;;;;;;;2.78;1.52;;;30.30;64.60;;;;;;6055542;29;20733;-71
2021/07/07 10:44:00;;;;;;;2.58;1.40;;;30.20;64.50;;;;;;6052859;29;20236;-71
2021/07/07 10:47:06;;;;;;;1.58;1.48;;;30.00;65.50;;;;;;6053830;29;20221;-71
2021/07/07 10:50:10;;;;;;;1.80;1.67;;;29.90;66.80;;;;;;6054628;29;20198;-70
2021/07/07 10:53:33;;;;;;;2.00;1.90;;;29.80;66.20;;;;;;6054922;29;20192;-71
2021/07/07 10:56:45;;;;;;;2.22;1.60;;;29.80;66.40;;;;;;6053300;29;20201;-71
2021/07/07 10:59:47;;;;;;;4.18;1.95;;;30.00;68.00;;;;;;6038047;29;20197;-71
2021/07/07 11:03:09;;;;;;;2.00;1.90;;;30.70;67.00;;;;;;6069276;29;20728;-70
2021/07/07 11:06:27;;;;;;;1.45;1.38;;;31.10;64.00;;;;;;6037582;29;20298;-70
2021/07/07 11:09:31;;;;;;;1.80;1.70;;;31.00;62.80;;;;;;6068764;29;20236;-70
2021/07/07 11:12:37;;;;;;;3.22;1.92;;;31.00;63.20;;;;;;6052909;29;20200;-70
2021/07/07 11:15:39;;;;;;;2.25;1.60;;;30.70;63.20;;;;;;6054260;29;20194;-71
2021/07/07 11:18:46;;;;;;;2.13;1.92;;;30.60;62.70;;;;;;6054068;29;20204;-70
2021/07/07 11:21:49;;;;;;;1.98;1.80;;;30.50;63.50;;;;;;6052952;29;20219;-71
2021/07/07 11:24:54;;;;;;;2.55;1.77;;;30.70;63.70;;;;;;6052804;29;20524;-71
2021/07/07 11:27:57;;;;;;;3.45;2.05;;;30.80;62.90;;;;;;6054011;29;20260;-71
2021/07/07 11:31:00;;;;;;;1.75;1.65;;;30.90;63.70;;;;;;6054368;29;20225;-70
2021/07/07 11:34:02;;;;;;;2.13;1.92;;;30.80;62.90;;;;;;6075603;29;20197;-71
2021/07/07 11:37:04;;;;;;;2.35;2.10;;;31.00;62.80;;;;;;6045228;29;20206;-71
2021/07/07 11:40:17;;;;;;;2.90;2.10;;;31.40;62.20;;;;;;6050830;29;20661;-69
2021/07/07 11:43:32;;;;;;;1.67;1.58;;;31.90;60.60;;;;;;6052113;29;20245;-70
2021/07/07 11:46:34;;;;;;;2.05;1.95;;;31.80;59.90;;;;;;6053851;29;20194;-71
2021/07/07 11:49:36;;;;;;;2.30;2.10;;;31.70;60.40;;;;;;6053336;29;20531;-70
2021/07/07 11:52:56;;;;;;;3.15;1.88;;;31.70;60.20;;;;;;6054033;29;20225;-70
2021/07/07 11:56:04;;;;;;;1.98;1.88;;;31.50;60.90;;;;;;6053466;29;20360;-71
2021/07/07 11:59:11;;;;;;;4.60;2.00;;;31.40;60.50;;;;;;6053898;29;20337;-70
2021/07/07 12:02:13;;;;;;;1.83;1.73;;;31.30;61.00;;;;;;6060492;29;20201;-71
2021/07/07 12:05:15;;;;;;;2.85;1.95;;;31.40;61.60;;;;;;6053270;29;20205;-71
2021/07/07 12:08:21;;;;;;;2.53;2.10;;;31.30;61.00;;;;;;6053825;29;20224;-70
2021/07/07 12:11:24;;;;;;;1.98;1.88;;;31.20;61.40;;;;;;6052071;29;20249;-71
2021/07/07 12:14:37;;;;;;;2.38;2.17;;;31.20;61.10;;;;;;6052217;29;20248;-70
2021/07/07 12:17:45;;;;;;;2.75;2.10;;;31.00;61.90;;;;;;6053319;29;20204;-71
2021/07/07 12:20:50;;;;;;;2.60;2.40;;;30.90;62.30;;;;;;6053579;29;20206;-71
2021/07/07 12:23:57;;;;;;;1.90;1.80;;;30.70;63.20;;;;;;6053374;29;20576;-70
2021/07/07 12:27:03;;;;;;;2.47;2.28;;;30.50;63.80;;;;;;6067469;29;20350;-71
2021/07/07 12:30:06;;;;;;;2.60;2.13;;;30.50;63.80;;;;;;6053509;29;20646;-70
2021/07/07 12:33:08;;;;;;;5.20;2.53;;;30.50;64.10;;;;;;6067655;29;20198;-70
2021/07/07 12:36:14;;;;;;;2.40;2.15;;;30.50;63.60;;;;;;6036585;29;20209;-70
2021/07/07 12:39:23;;;;;;;2.60;2.40;;;30.50;64.10;;;;;;6053588;29;20303;-71
2021/07/07 12:42:28;;;;;;;3.08;2.78;;;30.60;64.40;;;;;;6051661;29;20213;-70
2021/07/07 12:45:31;;;;;;;3.08;2.60;;;30.80;64.30;;;;;;6030340;29;20213;-70
2021/07/07 12:48:52;;;;;;;2.97;2.65;;;30.70;63.30;;;;;;6032491;29;20214;-70
2021/07/07 12:51:54;;;;;;;3.15;2.60;;;30.40;63.50;;;;;;6033208;29;20198;-67
2021/07/07 12:55:13;;;;;;;4.95;2.28;;;30.40;64.80;;;;;;6047974;29;20190;-71
2021/07/07 12:58:15;;;;;;;3.80;2.60;;;30.70;64.70;;;;;;6034301;29;20254;-70
2021/07/07 13:01:28;;;;;;;3.03;2.60;;;30.90;63.40;;;;;;6034263;29;20198;-71
2021/07/07 13:04:31;;;;;;;2.05;1.95;;;30.90;62.80;;;;;;6033507;29;20627;-71
2021/07/07 13:07:33;;;;;;;4.15;2.47;;;31.10;64.30;;;;;;6032690;29;20228;-71
2021/07/07 13:10:56;;;;;;;2.83;2.63;;;31.20;62.60;;;;;;6032665;29;20779;-69
2021/07/07 13:14:00;;;;;;;4.30;2.70;;;31.40;61.20;;;;;;6032920;29;20522;-70
2021/07/07 13:17:04;;;;;;;2.53;2.33;;;31.80;62.50;;;;;;6033404;29;20206;-71
2021/07/07 13:20:06;;;;;;;2.60;2.40;;;32.50;61.20;;;;;;6033860;29;20262;-71
2021/07/07 13:23:09;;;;;;;3.38;2.47;;;32.90;59.20;;;;;;6033879;29;20277;-71
2021/07/07 13:26:27;;;;;;;3.15;2.80;;;33.10;59.10;;;;;;6033128;29;20202;-71
2021/07/07 13:29:56;;;;;;;3.58;2.40;;;33.20;58.20;;;;;;6033552;29;20218;-71
2021/07/07 13:32:58;;;;;;;3.85;2.90;;;33.10;58.40;;;;;;6032837;29;20803;-70
2021/07/07 13:36:00;;;;;;;4.00;2.40;;;33.30;57.80;;;;;;6032179;29;20335;-70
2021/07/07 13:39:10;;;;;;;3.00;2.75;;;33.70;57.30;;;;;;6031753;29;20213;-71
2021/07/07 13:42:14;;;;;;;4.07;2.40;;;33.80;55.70;;;;;;6016627;29;20249;-71
2021/07/07 13:45:17;;;;;;;2.70;2.50;;;33.70;55.70;;;;;;6054428;29;20233;-70
2021/07/07 13:48:21;;;;;;;3.55;2.67;;;33.40;56.30;;;;;;6055849;29;20214;-70
2021/07/07 13:51:23;;;;;;;2.80;2.45;;;33.20;56.20;;;;;;6054836;29;20206;-70
2021/07/07 13:54:26;;;;;;;2.72;2.05;;;33.30;55.30;;;;;;6055527;29;20200;-70
2021/07/07 13:57:28;;;;;;;3.17;2.38;;;33.40;55.80;;;;;;6054841;29;20201;-71
2021/07/07 14:00:31;;;;;;;3.35;2.30;;;34.30;55.00;;;;;;6056452;29;20193;-71
2021/07/07 14:03:33;;;;;;;2.65;2.40;;;34.90;53.70;;;;;;6067881;29;20202;-71
2021/07/07 14:06:36;;;;;;;2.58;2.20;;;34.80;52.60;;;;;;6055575;29;20189;-71
2021/07/07 14:09:38;;;;;;;3.88;2.65;;;34.70;53.30;;;;;;6055835;29;20217;-71
2021/07/07 14:12:41;;;;;;;2.58;2.38;;;35.20;52.20;;;;;;6054297;29;20198;-70
2021/07/07 14:15:43;;;;;;;3.15;2.50;;;35.70;51.50;;;;;;6053991;29;20201;-70
2021/07/07 14:18:45;;;;;;;3.58;2.20;;;36.40;50.40;;;;;;6069401;29;20201;-71
2021/07/07 14:21:48;;;;;;;4.07;2.25;;;37.20;49.10;;;;;;6055471;29;20193;-70
2021/07/07 14:24:50;;;;;;;3.28;2.45;;;37.30;48.00;;;;;;6055484;29;20228;-72
2021/07/07 14:27:52;;;;;;;2.30;2.10;;;37.50;47.50;;;;;;6055162;29;20299;-71
2021/07/07 14:30:55;;;;;;;4.38;2.30;;;37.40;47.20;;;;;;6054790;29;20205;-71
2021/07/07 14:34:01;;;;;;;2.72;2.13;;;37.60;46.70;;;;;;6074717;29;20213;-71
2021/07/07 14:37:03;;;;;;;4.88;2.40;;;37.70;47.20;;;;;;6055307;29;20190;-70
2021/07/07 14:40:07;;;;;;;2.67;2.17;;;38.20;46.40;;;;;;6055173;29;20194;-71
2021/07/07 14:43:09;;;;;;;2.22;2.05;;;38.40;45.60;;;;;;6052682;29;20245;-71
2021/07/07 14:46:11;;;;;;;2.10;1.98;;;38.40;45.20;;;;;;6052427;29;20228;-72
2021/07/07 14:49:13;;;;;;;2.10;2.00;;;38.10;45.20;;;;;;6053110;29;20217;-71
2021/07/07 14:52:15;;;;;;;2.15;1.95;;;38.20;45.40;;;;;;6051788;29;20190;-71
2021/07/07 14:55:18;;;;;;;2.65;2.22;;;38.60;45.20;;;;;;6052919;29;20206;-71
2021/07/07 14:58:20;;;;;;;2.10;1.90;;;38.80;44.00;;;;;;6052969;29;20284;-71
2021/07/07 15:01:23;;;;;;;2.92;2.25;;;38.40;43.70;;;;;;6056387;29;20252;-71
2021/07/07 15:04:25;;;;;;;2.38;2.17;;;38.20;44.50;;;;;;6054379;29;20590;-72
2021/07/07 15:07:27;;;;;;;3.55;2.25;;;38.40;44.40;;;;;;6054413;29;20211;-71
2021/07/07 15:10:32;;;;;;;2.03;1.85;;;38.70;43.70;;;;;;6044859;29;20197;-72
2021/07/07 15:13:34;;;;;;;1.90;1.80;;;39.00;43.00;;;;;;6046284;29;20212;-71
2021/07/07 15:16:36;;;;;;;2.90;1.95;;;39.30;43.20;;;;;;6053874;29;20502;-71
2021/07/07 15:19:39;;;;;;;3.95;1.88;;;39.10;43.40;;;;;;6054295;29;20201;-71
2021/07/07 15:22:41;;;;;;;1.95;1.85;;;39.40;42.90;;;;;;6053874;29;20201;-71
2021/07/07 15:25:44;;;;;;;2.17;2.03;;;39.70;42.30;;;;;;6053993;29;20201;-71
2021/07/07 15:28:48;;;;;;;2.13;1.95;;;39.60;42.30;;;;;;6052745;29;20678;-71
2021/07/07 15:31:52;;;;;;;2.40;2.20;;;39.80;42.00;;;;;;6061964;29;20283;-70
2021/07/07 15:34:54;;;;;;;1.80;1.70;;;39.60;41.50;;;;;;6070384;29;20613;-71
2021/07/07 15:37:56;;;;;;;2.88;1.70;;;39.60;42.10;;;;;;6053717;29;20204;-71
2021/07/07 15:40:59;;;;;;;2.20;1.90;;;39.80;41.50;;;;;;6054035;29;20208;-70
2021/07/07 15:44:02;;;;;;;1.90;1.80;;;39.90;41.80;;;;;;6052271;29;20730;-71
2021/07/07 15:47:04;;;;;;;1.67;1.50;;;39.90;41.20;;;;;;6037160;29;20212;-71
2021/07/07 15:50:07;;;;;;;1.70;1.60;;;40.00;41.10;;;;;;6053842;29;20227;-70
2021/07/07 15:53:09;;;;;;;1.50;1.40;;;39.60;41.00;;;;;;6052177;29;20926;-71
2021/07/07 15:56:11;;;;;;;1.70;1.60;;;39.20;41.60;;;;;;6053888;29;20272;-70